sensor_id;sensor_type;location;lat;lon;timestamp;pressure;altitude;pressure_sealevel;temperature;humidity
51289;BME280;37372;52.294;5.152;2023-05-25T00:01:26;102640.59;;;11.00;80.36
51289;BME280;37372;52.294;5.152;2023-05-25T00:03:52;102645.63;;;10.97;80.26
51289;BME280;37372;52.294;5.152;2023-05-25T00:06:20;102640.25;;;10.89;81.11
51289;BME280;37372;52.294;5.152;2023-05-25T00:08:56;102648.84;;;10.85;81.30
51289;BME280;37372;52.294;5.152;2023-05-25T00:11:50;102649.78;;;10.78;81.43
51289;BME280;37372;52.294;5.152;2023-05-25T00:14:16;102653.59;;;10.77;81.97
51289;BME280;37372;52.294;5.152;2023-05-25T00:16:42;102656.69;;;10.74;82.17
51289;BME280;37372;52.294;5.152;2023-05-25T00:19:09;102646.94;;;10.71;82.71
51289;BME280;37372;52.294;5.152;2023-05-25T00:21:42;102651.19;;;10.74;82.60
51289;BME280;37372;52.294;5.152;2023-05-25T00:24:11;102646.28;;;10.69;82.58
51289;BME280;37372;52.294;5.152;2023-05-25T00:26:37;102651.19;;;10.74;82.34
51289;BME280;37372;52.294;5.152;2023-05-25T00:29:03;102656.38;;;10.69;82.58
51289;BME280;37372;52.294;5.152;2023-05-25T00:31:34;102649.59;;;10.65;83.01
51289;BME280;37372;52.294;5.152;2023-05-25T00:34:00;102648.75;;;10.64;82.62
51289;BME280;37372;52.294;5.152;2023-05-25T00:36:26;102655.31;;;10.55;82.85
51289;BME280;37372;52.294;5.152;2023-05-25T00:38:51;102656.06;;;10.49;83.18
51289;BME280;37372;52.294;5.152;2023-05-25T00:41:17;102650.59;;;10.49;83.21
51289;BME280;37372;52.294;5.152;2023-05-25T00:43:46;102655.13;;;10.42;82.98
51289;BME280;37372;52.294;5.152;2023-05-25T00:46:14;102658.44;;;10.37;83.62
51289;BME280;37372;52.294;5.152;2023-05-25T00:48:40;102663.03;;;10.37;83.33
51289;BME280;37372;52.294;5.152;2023-05-25T00:51:11;102664.28;;;10.34;83.37
51289;BME280;37372;52.294;5.152;2023-05-25T00:53:38;102660.50;;;10.35;83.17
51289;BME280;37372;52.294;5.152;2023-05-25T00:56:08;102663.63;;;10.32;82.87
51289;BME280;37372;52.294;5.152;2023-05-25T00:58:38;102657.63;;;10.28;83.13
51289;BME280;37372;52.294;5.152;2023-05-25T01:01:12;102664.34;;;10.26;82.84
51289;BME280;37372;52.294;5.152;2023-05-25T01:03:41;102665.06;;;10.20;82.98
51289;BME280;37372;52.294;5.152;2023-05-25T01:06:20;102665.25;;;10.18;83.46
51289;BME280;37372;52.294;5.152;2023-05-25T01:08:56;102668.13;;;10.25;83.05
51289;BME280;37372;52.294;5.152;2023-05-25T01:11:30;102665.06;;;10.20;83.03
51289;BME280;37372;52.294;5.152;2023-05-25T01:13:57;102670.41;;;10.13;83.37
51289;BME280;37372;52.294;5.152;2023-05-25T01:16:24;102663.41;;;10.11;83.51
51289;BME280;37372;52.294;5.152;2023-05-25T01:18:54;102666.31;;;10.09;83.61
51289;BME280;37372;52.294;5.152;2023-05-25T01:21:35;102670.41;;;10.13;83.80
51289;BME280;37372;52.294;5.152;2023-05-25T01:24:20;102672.63;;;10.18;83.28
51289;BME280;37372;52.294;5.152;2023-05-25T01:27:08;102679.31;;;10.15;83.11
51289;BME280;37372;52.294;5.152;2023-05-25T01:29:42;102675.41;;;10.10;83.93
51289;BME280;37372;52.294;5.152;2023-05-25T01:32:16;102677.50;;;10.08;83.86
51289;BME280;37372;52.294;5.152;2023-05-25T01:34:42;102679.72;;;10.04;83.94
51289;BME280;37372;52.294;5.152;2023-05-25T01:37:08;102677.72;;;9.98;84.74
51289;BME280;37372;52.294;5.152;2023-05-25T01:39:38;102681.88;;;9.94;84.71
51289;BME280;37372;52.294;5.152;2023-05-25T01:42:03;102673.13;;;9.90;85.05
51289;BME280;37372;52.294;5.152;2023-05-25T01:44:30;102687.22;;;9.87;84.82
51289;BME280;37372;52.294;5.152;2023-05-25T01:49:51;102688.41;;;9.85;85.34
51289;BME280;37372;52.294;5.152;2023-05-25T01:52:37;102695.50;;;9.79;85.43
51289;BME280;37372;52.294;5.152;2023-05-25T01:55:10;102687.63;;;9.76;85.97
51289;BME280;37372;52.294;5.152;2023-05-25T01:57:40;102684.22;;;9.74;86.12
51289;BME280;37372;52.294;5.152;2023-05-25T02:00:09;102689.91;;;9.72;86.44
51289;BME280;37372;52.294;5.152;2023-05-25T02:02:37;102689.72;;;9.74;86.55
51289;BME280;37372;52.294;5.152;2023-05-25T02:05:05;102687.31;;;9.71;86.29
51289;BME280;37372;52.294;5.152;2023-05-25T02:07:30;102682.53;;;9.65;86.60
51289;BME280;37372;52.294;5.152;2023-05-25T02:09:57;102694.53;;;9.64;86.75
51289;BME280;37372;52.294;5.152;2023-05-25T02:12:23;102696.63;;;9.62;86.92
51289;BME280;37372;52.294;5.152;2023-05-25T02:14:48;102693.56;;;9.57;86.96
51289;BME280;37372;52.294;5.152;2023-05-25T02:17:14;102697.69;;;9.53;86.91
51289;BME280;37372;52.294;5.152;2023-05-25T02:19:42;102707.06;;;9.58;87.45
51289;BME280;37372;52.294;5.152;2023-05-25T02:22:09;102700.56;;;9.59;87.65
51289;BME280;37372;52.294;5.152;2023-05-25T02:24:34;102698.69;;;9.60;87.70
51289;BME280;37372;52.294;5.152;2023-05-25T02:27:03;102703.75;;;9.71;87.81
51289;BME280;37372;52.294;5.152;2023-05-25T02:29:32;102709.06;;;9.72;88.03
51289;BME280;37372;52.294;5.152;2023-05-25T02:31:58;102698.84;;;9.66;87.75
51289;BME280;37372;52.294;5.152;2023-05-25T02:34:30;102703.81;;;9.63;87.92
51289;BME280;37372;52.294;5.152;2023-05-25T02:37:00;102709.47;;;9.61;88.13
51289;BME280;37372;52.294;5.152;2023-05-25T02:39:25;102713.78;;;9.56;87.91
51289;BME280;37372;52.294;5.152;2023-05-25T02:41:59;102709.19;;;9.48;88.49
51289;BME280;37372;52.294;5.152;2023-05-25T02:44:25;102708.00;;;9.42;88.66
51289;BME280;37372;52.294;5.152;2023-05-25T02:46:51;102706.84;;;9.37;88.71
51289;BME280;37372;52.294;5.152;2023-05-25T02:49:16;102710.94;;;9.33;89.16
51289;BME280;37372;52.294;5.152;2023-05-25T02:51:42;102712.50;;;9.27;89.21
51289;BME280;37372;52.294;5.152;2023-05-25T02:54:07;102710.47;;;9.29;89.91
51289;BME280;37372;52.294;5.152;2023-05-25T02:56:42;102712.16;;;9.30;89.50
51289;BME280;37372;52.294;5.152;2023-05-25T02:59:07;102720.03;;;9.25;89.50
51289;BME280;37372;52.294;5.152;2023-05-25T03:01:34;102722.31;;;9.21;89.90
51289;BME280;37372;52.294;5.152;2023-05-25T03:04:00;102720.09;;;9.17;89.56
51289;BME280;37372;52.294;5.152;2023-05-25T03:06:25;102720.41;;;9.14;89.40
51289;BME280;37372;52.294;5.152;2023-05-25T03:08:51;102714.47;;;9.10;89.67
51289;BME280;37372;52.294;5.152;2023-05-25T03:11:21;102707.44;;;9.08;89.67
51289;BME280;37372;52.294;5.152;2023-05-25T03:13:48;102709.66;;;9.12;90.18
51289;BME280;37372;52.294;5.152;2023-05-25T03:16:19;102709.16;;;9.09;90.01
51289;BME280;37372;52.294;5.152;2023-05-25T03:18:47;102718.38;;;9.08;90.34
51289;BME280;37372;52.294;5.152;2023-05-25T03:21:13;102708.47;;;9.07;90.45
51289;BME280;37372;52.294;5.152;2023-05-25T03:23:39;102708.47;;;9.07;90.26
51289;BME280;37372;52.294;5.152;2023-05-25T03:26:04;102697.50;;;9.07;90.16
51289;BME280;37372;52.294;5.152;2023-05-25T03:28:30;102705.06;;;9.05;89.92
51289;BME280;37372;52.294;5.152;2023-05-25T03:30:56;102706.09;;;9.04;89.89
51289;BME280;37372;52.294;5.152;2023-05-25T03:33:22;102714.31;;;9.04;89.86
51289;BME280;37372;52.294;5.152;2023-05-25T03:35:48;102714.63;;;9.01;89.91
51289;BME280;37372;52.294;5.152;2023-05-25T03:38:13;102713.63;;;9.02;90.05
51289;BME280;37372;52.294;5.152;2023-05-25T03:40:39;102719.09;;;9.02;89.75
51289;BME280;37372;52.294;5.152;2023-05-25T03:43:04;102722.69;;;9.02;89.51
51289;BME280;37372;52.294;5.152;2023-05-25T03:45:30;102724.59;;;9.02;89.68
51289;BME280;37372;52.294;5.152;2023-05-25T03:47:56;102722.84;;;9.01;89.61
51289;BME280;37372;52.294;5.152;2023-05-25T03:50:24;102723.69;;;9.01;89.95
51289;BME280;37372;52.294;5.152;2023-05-25T03:52:50;102722.34;;;9.05;89.84
51289;BME280;37372;52.294;5.152;2023-05-25T03:55:16;102727.63;;;9.07;89.75
51289;BME280;37372;52.294;5.152;2023-05-25T03:57:42;102726.78;;;9.06;89.51
51289;BME280;37372;52.294;5.152;2023-05-25T04:00:17;102728.66;;;9.06;89.85
51289;BME280;37372;52.294;5.152;2023-05-25T04:02:43;102727.97;;;9.12;90.20
51289;BME280;37372;52.294;5.152;2023-05-25T04:05:08;102734.81;;;9.16;90.10
51289;BME280;37372;52.294;5.152;2023-05-25T04:07:34;102733.06;;;9.23;90.10
51289;BME280;37372;52.294;5.152;2023-05-25T04:10:01;102729.09;;;9.34;90.15
51289;BME280;37372;52.294;5.152;2023-05-25T04:12:36;102724.47;;;9.34;90.05
51289;BME280;37372;52.294;5.152;2023-05-25T04:15:02;102736.44;;;9.41;90.04
51289;BME280;37372;52.294;5.152;2023-05-25T04:17:30;102740.03;;;9.42;89.63
51289;BME280;37372;52.294;5.152;2023-05-25T04:19:55;102743.94;;;9.47;90.10
51289;BME280;37372;52.294;5.152;2023-05-25T04:22:24;102738.78;;;9.53;89.24
51289;BME280;37372;52.294;5.152;2023-05-25T04:24:49;102741.50;;;9.53;89.58
51289;BME280;37372;52.294;5.152;2023-05-25T04:27:20;102746.50;;;9.49;89.55
51289;BME280;37372;52.294;5.152;2023-05-25T04:29:46;102751.81;;;9.50;89.78
51289;BME280;37372;52.294;5.152;2023-05-25T04:32:27;102753.31;;;9.53;89.67
51289;BME280;37372;52.294;5.152;2023-05-25T04:34:56;102757.63;;;9.56;89.65
51289;BME280;37372;52.294;5.152;2023-05-25T04:37:24;102756.75;;;9.55;89.74
51289;BME280;37372;52.294;5.152;2023-05-25T04:39:54;102766.88;;;9.55;90.07
51289;BME280;37372;52.294;5.152;2023-05-25T04:42:27;102767.72;;;9.55;90.47
51289;BME280;37372;52.294;5.152;2023-05-25T04:44:53;102764.13;;;9.55;90.00
51289;BME280;37372;52.294;5.152;2023-05-25T04:47:24;102770.28;;;9.57;90.28
51289;BME280;37372;52.294;5.152;2023-05-25T04:49:50;102765.78;;;9.64;90.07
51289;BME280;37372;52.294;5.152;2023-05-25T04:52:20;102771.78;;;9.67;90.68
51289;BME280;37372;52.294;5.152;2023-05-25T04:54:53;102762.00;;;9.73;90.04
51289;BME280;37372;52.294;5.152;2023-05-25T04:57:20;102768.63;;;9.78;90.28
51289;BME280;37372;52.294;5.152;2023-05-25T04:59:56;102764.69;;;9.81;90.86
51289;BME280;37372;52.294;5.152;2023-05-25T05:02:29;102782.13;;;9.88;90.94
51289;BME280;37372;52.294;5.152;2023-05-25T05:04:55;102776.28;;;9.91;90.58
51289;BME280;37372;52.294;5.152;2023-05-25T05:07:29;102784.81;;;9.96;90.91
51289;BME280;37372;52.294;5.152;2023-05-25T05:09:56;102779.66;;;10.01;90.34
51289;BME280;37372;52.294;5.152;2023-05-25T05:12:28;102781.69;;;10.08;90.45
51289;BME280;37372;52.294;5.152;2023-05-25T05:14:57;102771.34;;;10.18;90.47
51289;BME280;37372;52.294;5.152;2023-05-25T05:17:24;102776.13;;;10.24;89.85
51289;BME280;37372;52.294;5.152;2023-05-25T05:19:54;102787.91;;;10.33;90.21
51289;BME280;37372;52.294;5.152;2023-05-25T05:22:20;102782.00;;;10.44;90.12
51289;BME280;37372;52.294;5.152;2023-05-25T05:24:45;102777.31;;;10.52;90.28
51289;BME280;37372;52.294;5.152;2023-05-25T05:27:12;102782.72;;;10.61;89.79
51289;BME280;37372;52.294;5.152;2023-05-25T05:29:47;102785.91;;;10.72;89.47
51289;BME280;37372;52.294;5.152;2023-05-25T05:32:12;102781.91;;;10.75;88.60
51289;BME280;37372;52.294;5.152;2023-05-25T05:34:38;102789.53;;;10.88;88.23
51289;BME280;37372;52.294;5.152;2023-05-25T05:37:03;102792.88;;;10.98;87.42
51289;BME280;37372;52.294;5.152;2023-05-25T05:39:29;102797.25;;;11.07;87.73
51289;BME280;37372;52.294;5.152;2023-05-25T05:41:54;102802.75;;;11.07;86.72
51289;BME280;37372;52.294;5.152;2023-05-25T05:44:20;102802.84;;;11.13;86.59
51289;BME280;37372;52.294;5.152;2023-05-25T05:46:50;102812.97;;;11.13;85.94
51289;BME280;37372;52.294;5.152;2023-05-25T05:49:31;102817.38;;;11.22;86.08
51289;BME280;37372;52.294;5.152;2023-05-25T05:51:57;102822.69;;;11.38;85.17
51289;BME280;37372;52.294;5.152;2023-05-25T05:54:22;102817.13;;;11.47;85.21
51289;BME280;37372;52.294;5.152;2023-05-25T05:56:51;102821.09;;;11.44;85.11
51289;BME280;37372;52.294;5.152;2023-05-25T05:59:20;102822.03;;;11.51;84.27
51289;BME280;37372;52.294;5.152;2023-05-25T06:01:53;102834.94;;;11.65;84.71
51289;BME280;37372;52.294;5.152;2023-05-25T06:04:19;102833.59;;;11.76;83.91
51289;BME280;37372;52.294;5.152;2023-05-25T06:06:44;102833.53;;;11.84;83.78
51289;BME280;37372;52.294;5.152;2023-05-25T06:09:10;102835.53;;;11.90;83.87
51289;BME280;37372;52.294;5.152;2023-05-25T06:11:36;102828.28;;;12.04;83.79
51289;BME280;37372;52.294;5.152;2023-05-25T06:14:04;102825.28;;;11.99;83.59
51289;BME280;37372;52.294;5.152;2023-05-25T06:16:29;102837.13;;;12.14;83.42
51289;BME280;37372;52.294;5.152;2023-05-25T06:18:55;102828.50;;;12.17;82.55
51289;BME280;37372;52.294;5.152;2023-05-25T06:21:20;102837.59;;;12.03;84.15
51289;BME280;37372;52.294;5.152;2023-05-25T06:23:46;102837.44;;;12.05;83.12
51289;BME280;37372;52.294;5.152;2023-05-25T06:26:12;102834.94;;;12.10;82.10
51289;BME280;37372;52.294;5.152;2023-05-25T06:28:41;102842.41;;;12.31;82.20
51289;BME280;37372;52.294;5.152;2023-05-25T06:31:07;102845.97;;;12.46;81.89
51289;BME280;37372;52.294;5.152;2023-05-25T06:33:32;102842.03;;;12.55;81.38
51289;BME280;37372;52.294;5.152;2023-05-25T06:35:58;102839.13;;;12.42;80.89
51289;BME280;37372;52.294;5.152;2023-05-25T06:38:28;102833.69;;;12.48;80.46
51289;BME280;37372;52.294;5.152;2023-05-25T06:40:53;102842.63;;;12.51;80.78
51289;BME280;37372;52.294;5.152;2023-05-25T06:43:19;102843.44;;;12.66;81.04
51289;BME280;37372;52.294;5.152;2023-05-25T06:45:44;102845.25;;;12.80;79.87
51289;BME280;37372;52.294;5.152;2023-05-25T06:48:14;102849.84;;;12.94;79.24
51289;BME280;37372;52.294;5.152;2023-05-25T06:50:49;102844.47;;;12.65;80.53
51289;BME280;37372;52.294;5.152;2023-05-25T06:53:16;102853.94;;;12.77;80.37
51289;BME280;37372;52.294;5.152;2023-05-25T06:55:42;102853.66;;;12.72;80.33
51289;BME280;37372;52.294;5.152;2023-05-25T06:58:07;102839.16;;;13.06;80.90
51289;BME280;37372;52.294;5.152;2023-05-25T07:00:34;102848.22;;;13.49;79.30
51289;BME280;37372;52.294;5.152;2023-05-25T07:03:00;102851.09;;;13.69;77.80
51289;BME280;37372;52.294;5.152;2023-05-25T07:05:25;102859.19;;;13.43;76.60
51289;BME280;37372;52.294;5.152;2023-05-25T07:07:54;102858.03;;;13.59;78.34
51289;BME280;37372;52.294;5.152;2023-05-25T07:10:21;102865.22;;;13.53;77.06
51289;BME280;37372;52.294;5.152;2023-05-25T07:13:05;102872.09;;;13.36;76.30
51289;BME280;37372;52.294;5.152;2023-05-25T07:15:30;102867.84;;;13.33;75.90
51289;BME280;37372;52.294;5.152;2023-05-25T07:18:01;102869.81;;;13.46;75.68
51289;BME280;37372;52.294;5.152;2023-05-25T07:20:28;102866.84;;;13.41;76.51
51289;BME280;37372;52.294;5.152;2023-05-25T07:22:59;102872.72;;;13.38;77.64
51289;BME280;37372;52.294;5.152;2023-05-25T07:25:25;102869.44;;;13.49;75.78
51289;BME280;37372;52.294;5.152;2023-05-25T07:27:56;102871.94;;;13.44;75.46
51289;BME280;37372;52.294;5.152;2023-05-25T07:30:25;102873.13;;;13.13;75.41
51289;BME280;37372;52.294;5.152;2023-05-25T07:32:57;102895.44;;;13.18;76.00
51289;BME280;37372;52.294;5.152;2023-05-25T07:35:24;102898.97;;;13.12;75.27
51289;BME280;37372;52.294;5.152;2023-05-25T07:38:03;102899.44;;;12.94;76.93
51289;BME280;37372;52.294;5.152;2023-05-25T07:40:33;102902.41;;;13.14;75.03
51289;BME280;37372;52.294;5.152;2023-05-25T07:43:02;102897.47;;;13.52;74.89
51289;BME280;37372;52.294;5.152;2023-05-25T07:45:28;102894.75;;;13.59;72.61
51289;BME280;37372;52.294;5.152;2023-05-25T07:50:39;102895.38;;;13.89;75.00
51289;BME280;37372;52.294;5.152;2023-05-25T07:53:14;102894.97;;;13.92;70.24
51289;BME280;37372;52.294;5.152;2023-05-25T07:55:40;102897.88;;;14.19;68.57
51289;BME280;37372;52.294;5.152;2023-05-25T07:58:05;102906.88;;;13.93;69.79
51289;BME280;37372;52.294;5.152;2023-05-25T08:00:32;102901.16;;;14.42;68.77
51289;BME280;37372;52.294;5.152;2023-05-25T08:03:02;102904.75;;;14.36;67.88
51289;BME280;37372;52.294;5.152;2023-05-25T08:05:28;102902.78;;;14.71;68.46
51289;BME280;37372;52.294;5.152;2023-05-25T08:07:53;102917.28;;;14.86;68.44
51289;BME280;37372;52.294;5.152;2023-05-25T08:10:22;102915.38;;;14.87;67.03
51289;BME280;37372;52.294;5.152;2023-05-25T08:12:48;102924.72;;;14.93;66.76
51289;BME280;37372;52.294;5.152;2023-05-25T08:15:17;102922.38;;;14.76;68.00
51289;BME280;37372;52.294;5.152;2023-05-25T08:17:46;102922.09;;;14.58;68.92
51289;BME280;37372;52.294;5.152;2023-05-25T08:20:17;102924.34;;;15.02;67.38
51289;BME280;37372;52.294;5.152;2023-05-25T08:22:50;102920.09;;;15.13;68.76
51289;BME280;37372;52.294;5.152;2023-05-25T08:25:18;102923.94;;;15.45;67.26
51289;BME280;37372;52.294;5.152;2023-05-25T08:27:47;102925.66;;;15.53;65.90
51289;BME280;37372;52.294;5.152;2023-05-25T08:30:13;102932.47;;;15.77;67.26
51289;BME280;37372;52.294;5.152;2023-05-25T08:32:39;102928.44;;;15.53;67.59
51289;BME280;37372;52.294;5.152;2023-05-25T08:35:05;102932.06;;;15.73;67.45
51289;BME280;37372;52.294;5.152;2023-05-25T08:37:33;102933.34;;;15.70;64.91
51289;BME280;37372;52.294;5.152;2023-05-25T08:40:00;102932.69;;;15.49;66.04
51289;BME280;37372;52.294;5.152;2023-05-25T08:42:27;102935.84;;;15.32;66.28
51289;BME280;37372;52.294;5.152;2023-05-25T08:44:54;102941.19;;;15.27;65.66
51289;BME280;37372;52.294;5.152;2023-05-25T08:47:25;102938.69;;;15.65;65.50
51289;BME280;37372;52.294;5.152;2023-05-25T08:49:54;102942.06;;;15.74;66.17
51289;BME280;37372;52.294;5.152;2023-05-25T08:52:32;102935.69;;;15.80;66.33
51289;BME280;37372;52.294;5.152;2023-05-25T08:55:03;102932.44;;;15.96;64.10
51289;BME280;37372;52.294;5.152;2023-05-25T09:00:04;102941.00;;;15.82;61.55
51289;BME280;37372;52.294;5.152;2023-05-25T09:02:49;102948.63;;;15.27;65.35
51289;BME280;37372;52.294;5.152;2023-05-25T09:05:17;102936.09;;;15.64;65.68
51289;BME280;37372;52.294;5.152;2023-05-25T09:07:43;102939.28;;;15.81;65.21
51289;BME280;37372;52.294;5.152;2023-05-25T09:10:10;102940.13;;;15.94;65.87
51289;BME280;37372;52.294;5.152;2023-05-25T09:12:37;102944.38;;;15.57;65.47
51289;BME280;37372;52.294;5.152;2023-05-25T09:15:03;102941.88;;;15.62;65.81
51289;BME280;37372;52.294;5.152;2023-05-25T09:17:47;102951.16;;;15.15;67.67
51289;BME280;37372;52.294;5.152;2023-05-25T09:20:13;102944.34;;;15.17;68.49
51289;BME280;37372;52.294;5.152;2023-05-25T09:22:43;102940.47;;;14.99;68.04
51289;BME280;37372;52.294;5.152;2023-05-25T09:25:10;102947.94;;;15.05;67.76
51289;BME280;37372;52.294;5.152;2023-05-25T09:27:41;102936.47;;;15.01;66.85
51289;BME280;37372;52.294;5.152;2023-05-25T09:30:07;102940.53;;;15.52;65.91
51289;BME280;37372;52.294;5.152;2023-05-25T09:32:35;102935.44;;;15.42;66.12
51289;BME280;37372;52.294;5.152;2023-05-25T09:35:11;102947.16;;;15.84;67.67
51289;BME280;37372;52.294;5.152;2023-05-25T09:37:42;102941.38;;;15.32;67.18
51289;BME280;37372;52.294;5.152;2023-05-25T09:40:08;102940.97;;;15.35;66.71
51289;BME280;37372;52.294;5.152;2023-05-25T09:42:40;102948.63;;;15.20;65.91
51289;BME280;37372;52.294;5.152;2023-05-25T09:45:06;102951.22;;;15.68;67.54
51289;BME280;37372;52.294;5.152;2023-05-25T09:47:41;102946.53;;;15.62;65.88
51289;BME280;37372;52.294;5.152;2023-05-25T09:50:07;102946.06;;;15.52;65.51
51289;BME280;37372;52.294;5.152;2023-05-25T09:52:42;102949.69;;;15.45;65.53
51289;BME280;37372;52.294;5.152;2023-05-25T09:55:08;102962.47;;;15.33;66.09
51289;BME280;37372;52.294;5.152;2023-05-25T09:58:00;102961.13;;;15.03;66.00
51289;BME280;37372;52.294;5.152;2023-05-25T10:00:36;102954.59;;;15.37;65.79
51289;BME280;37372;52.294;5.152;2023-05-25T10:03:07;102949.31;;;15.62;64.40
51289;BME280;37372;52.294;5.152;2023-05-25T10:05:32;102957.59;;;15.88;63.12
51289;BME280;37372;52.294;5.152;2023-05-25T10:07:58;102954.28;;;16.44;60.90
51289;BME280;37372;52.294;5.152;2023-05-25T10:10:27;102962.88;;;16.10;61.25
51289;BME280;37372;52.294;5.152;2023-05-25T10:12:53;102956.72;;;16.08;61.61
51289;BME280;37372;52.294;5.152;2023-05-25T10:15:20;102957.59;;;15.82;59.93
51289;BME280;37372;52.294;5.152;2023-05-25T10:17:54;102959.72;;;15.93;61.67
51289;BME280;37372;52.294;5.152;2023-05-25T10:20:22;102961.38;;;16.14;60.69
51289;BME280;37372;52.294;5.152;2023-05-25T10:25:31;102967.59;;;16.74;59.79
51289;BME280;37372;52.294;5.152;2023-05-25T10:28:28;102957.97;;;16.18;61.17
51289;BME280;37372;52.294;5.152;2023-05-25T10:31:02;102964.75;;;16.42;61.40
51289;BME280;37372;52.294;5.152;2023-05-25T10:33:44;102963.22;;;16.46;62.04
51289;BME280;37372;52.294;5.152;2023-05-25T10:36:18;102964.13;;;16.27;61.88
51289;BME280;37372;52.294;5.152;2023-05-25T10:38:50;102965.22;;;16.13;62.06
51289;BME280;37372;52.294;5.152;2023-05-25T10:41:19;102967.53;;;16.22;59.89
51289;BME280;37372;52.294;5.152;2023-05-25T10:43:45;102975.03;;;16.09;59.80
51289;BME280;37372;52.294;5.152;2023-05-25T10:46:11;102972.91;;;16.17;59.42
51289;BME280;37372;52.294;5.152;2023-05-25T10:48:48;102978.00;;;16.14;59.97
51289;BME280;37372;52.294;5.152;2023-05-25T10:51:18;102975.19;;;16.27;60.61
51289;BME280;37372;52.294;5.152;2023-05-25T10:53:46;102975.41;;;16.32;60.16
51289;BME280;37372;52.294;5.152;2023-05-25T10:56:12;102968.81;;;16.20;59.99
51289;BME280;37372;52.294;5.152;2023-05-25T10:58:42;102980.94;;;16.32;60.34
51289;BME280;37372;52.294;5.152;2023-05-25T11:01:14;102973.94;;;16.16;59.10
51289;BME280;37372;52.294;5.152;2023-05-25T11:06:21;102974.84;;;16.04;60.67
51289;BME280;37372;52.294;5.152;2023-05-25T11:11:18;102980.56;;;16.09;59.62
51289;BME280;37372;52.294;5.152;2023-05-25T11:13:53;102981.41;;;16.16;59.24
51289;BME280;37372;52.294;5.152;2023-05-25T11:16:20;102983.53;;;16.20;59.85
51289;BME280;37372;52.294;5.152;2023-05-25T11:24:01;102980.94;;;16.32;60.69
51289;BME280;37372;52.294;5.152;2023-05-25T11:26:34;102973.25;;;16.34;59.56
51289;BME280;37372;52.294;5.152;2023-05-25T11:29:14;102975.09;;;16.60;58.97
51289;BME280;37372;52.294;5.152;2023-05-25T11:31:41;102971.66;;;16.65;57.40
51289;BME280;37372;52.294;5.152;2023-05-25T11:34:07;102967.69;;;16.47;57.44
51289;BME280;37372;52.294;5.152;2023-05-25T11:36:36;102967.50;;;16.36;56.93
51289;BME280;37372;52.294;5.152;2023-05-25T11:39:05;102967.72;;;16.34;58.85
51289;BME280;37372;52.294;5.152;2023-05-25T11:41:30;102970.91;;;16.96;57.79
51289;BME280;37372;52.294;5.152;2023-05-25T11:44:03;102978.91;;;16.72;58.48
51289;BME280;37372;52.294;5.152;2023-05-25T11:46:30;102966.47;;;17.26;56.87
51289;BME280;37372;52.294;5.152;2023-05-25T11:48:58;102966.25;;;16.32;55.56
51289;BME280;37372;52.294;5.152;2023-05-25T11:51:26;102964.44;;;17.09;56.69
51289;BME280;37372;52.294;5.152;2023-05-25T11:53:53;102963.50;;;17.21;57.64
51289;BME280;37372;52.294;5.152;2023-05-25T11:56:23;102959.34;;;17.37;56.55
51289;BME280;37372;52.294;5.152;2023-05-25T11:59:00;102960.28;;;17.81;55.89
51289;BME280;37372;52.294;5.152;2023-05-25T12:01:25;102957.50;;;17.81;55.02
51289;BME280;37372;52.294;5.152;2023-05-25T12:03:53;102948.53;;;17.29;56.94
51289;BME280;37372;52.294;5.152;2023-05-25T12:06:28;102954.88;;;17.04;57.66
51289;BME280;37372;52.294;5.152;2023-05-25T12:09:11;102945.66;;;17.11;58.04
51289;BME280;37372;52.294;5.152;2023-05-25T12:11:39;102949.31;;;17.36;57.85
51289;BME280;37372;52.294;5.152;2023-05-25T12:14:13;102947.63;;;17.03;58.00
51289;BME280;37372;52.294;5.152;2023-05-25T12:16:38;102947.94;;;17.20;57.70
51289;BME280;37372;52.294;5.152;2023-05-25T12:19:14;102947.25;;;16.93;56.12
51289;BME280;37372;52.294;5.152;2023-05-25T12:21:40;102945.56;;;17.24;56.30
51289;BME280;37372;52.294;5.152;2023-05-25T12:24:07;102944.06;;;16.90;55.91
51289;BME280;37372;52.294;5.152;2023-05-25T12:26:33;102944.81;;;17.10;54.44
51289;BME280;37372;52.294;5.152;2023-05-25T12:29:06;102949.22;;;17.18;53.24
51289;BME280;37372;52.294;5.152;2023-05-25T12:31:35;102937.13;;;17.37;53.86
51289;BME280;37372;52.294;5.152;2023-05-25T12:36:46;102950.41;;;17.35;52.63
51289;BME280;37372;52.294;5.152;2023-05-25T12:41:52;102950.56;;;16.70;53.71
51289;BME280;37372;52.294;5.152;2023-05-25T12:44:27;102943.28;;;16.83;53.52
51289;BME280;37372;52.294;5.152;2023-05-25T12:46:59;102951.06;;;16.41;54.17
51289;BME280;37372;52.294;5.152;2023-05-25T12:49:42;102942.56;;;16.42;54.89
51289;BME280;37372;52.294;5.152;2023-05-25T12:52:32;102938.66;;;15.85;54.67
51289;BME280;37372;52.294;5.152;2023-05-25T12:55:17;102938.47;;;15.74;55.29
51289;BME280;37372;52.294;5.152;2023-05-25T12:57:43;102947.38;;;15.69;56.52
51289;BME280;37372;52.294;5.152;2023-05-25T13:00:12;102939.69;;;15.44;56.95
51289;BME280;37372;52.294;5.152;2023-05-25T13:02:44;102940.38;;;15.80;56.67
51289;BME280;37372;52.294;5.152;2023-05-25T13:05:20;102936.91;;;16.11;55.50
51289;BME280;37372;52.294;5.152;2023-05-25T13:07:47;102935.25;;;15.70;55.34
51289;BME280;37372;52.294;5.152;2023-05-25T13:10:13;102933.53;;;15.82;55.82
51289;BME280;37372;52.294;5.152;2023-05-25T13:12:40;102932.06;;;15.86;55.35
51289;BME280;37372;52.294;5.152;2023-05-25T13:15:06;102928.66;;;15.84;55.86
51289;BME280;37372;52.294;5.152;2023-05-25T13:17:32;102927.38;;;15.80;56.41
51289;BME280;37372;52.294;5.152;2023-05-25T13:19:57;102918.84;;;15.82;55.17
51289;BME280;37372;52.294;5.152;2023-05-25T13:22:22;102920.16;;;15.79;56.35
51289;BME280;37372;52.294;5.152;2023-05-25T13:24:49;102920.53;;;15.56;55.33
51289;BME280;37372;52.294;5.152;2023-05-25T13:27:18;102912.47;;;15.75;56.54
51289;BME280;37372;52.294;5.152;2023-05-25T13:29:44;102920.13;;;15.92;57.08